Time;durP1;ratioP1;P1;durP2;ratioP2;P2;SDS_P1;SDS_P2;PMS_P1;PMS_P2;Temp;Humidity;BMP_temperature;BMP_pressure;BME280_temperature;BME280_humidity;BME280_pressure;Samples;Min_cycle;Max_cycle;Signal;HPM_P1;HPM_P2
2023/04/03 00:01:29;;;;;;;8.30;7.80;;;2.10;99.90;;;;;;5067570;28;20297;-65
2023/04/03 00:03:55;;;;;;;9.13;8.63;;;2.00;99.90;;;;;;5059248;28;22131;-65
2023/04/03 00:06:21;;;;;;;8.87;8.40;;;1.90;99.90;;;;;;5053248;28;20167;-65
2023/04/03 00:08:46;;;;;;;8.20;7.80;;;1.80;99.90;;;;;;5063224;28;20185;-65
2023/04/03 00:11:12;;;;;;;10.20;9.70;;;1.70;99.90;;;;;;5072452;28;20190;-64
2023/04/03 00:13:39;;;;;;;8.33;7.93;;;1.60;99.90;;;;;;5063332;28;20179;-65
2023/04/03 00:16:05;;;;;;;8.73;8.33;;;1.50;99.90;;;;;;5052558;28;20661;-65
2023/04/03 00:18:31;;;;;;;8.63;8.03;;;1.40;99.90;;;;;;5060010;28;20728;-65
2023/04/03 00:20:57;;;;;;;8.80;8.20;;;1.30;99.90;;;;;;5071917;28;20289;-65
2023/04/03 00:23:23;;;;;;;9.30;8.80;;;1.30;99.90;;;;;;5066092;28;20261;-65
2023/04/03 00:25:50;;;;;;;9.17;8.77;;;1.20;99.90;;;;;;5052492;28;20164;-64
2023/04/03 00:28:15;;;;;;;8.77;8.37;;;1.10;99.90;;;;;;5053480;28;20226;-65
2023/04/03 00:30:41;;;;;;;8.87;8.47;;;1.10;99.90;;;;;;5051897;28;20273;-65
2023/04/03 00:33:07;;;;;;;9.40;8.90;;;1.00;99.90;;;;;;5053140;28;20652;-64
2023/04/03 00:35:34;;;;;;;8.50;8.10;;;1.00;99.90;;;;;;5052151;28;20182;-65
2023/04/03 00:38:00;;;;;;;9.47;8.97;;;1.00;99.90;;;;;;5055899;28;20182;-65
2023/04/03 00:40:27;;;;;;;8.43;8.03;;;0.90;99.90;;;;;;5071867;28;20194;-65
2023/04/03 00:42:59;;;;;;;10.67;10.10;;;0.80;99.90;;;;;;5069102;28;20201;-65
2023/04/03 00:45:29;;;;;;;10.50;10.10;;;0.80;99.90;;;;;;5052429;28;20166;-65
2023/04/03 00:47:56;;;;;;;10.37;9.70;;;0.70;99.90;;;;;;5054436;28;20210;-65
2023/04/03 00:50:23;;;;;;;9.20;8.50;;;0.70;99.90;;;;;;5071689;28;20216;-65
2023/04/03 00:52:49;;;;;;;7.10;6.80;;;0.60;99.90;;;;;;5070649;28;20546;-65
2023/04/03 00:55:15;;;;;;;8.27;7.83;;;0.60;99.90;;;;;;5052017;28;20266;-65
2023/04/03 00:57:41;;;;;;;7.93;7.43;;;0.60;99.90;;;;;;5068453;28;20181;-65
2023/04/03 01:00:13;;;;;;;8.00;7.50;;;0.60;99.90;;;;;;5071431;28;20202;-65
2023/04/03 01:02:40;;;;;;;9.33;8.60;;;0.60;99.90;;;;;;5055726;28;20675;-65
2023/04/03 01:05:06;;;;;;;7.40;7.10;;;0.50;99.90;;;;;;5052828;28;20175;-65
2023/04/03 01:07:35;;;;;;;8.90;8.40;;;0.50;99.90;;;;;;5051511;28;20238;-65
2023/04/03 01:10:03;;;;;;;14.53;7.80;;;0.50;99.90;;;;;;5051117;28;20187;-65
2023/04/03 01:12:31;;;;;;;8.20;7.80;;;0.50;99.90;;;;;;5051893;28;20170;-65
2023/04/03 01:15:16;;;;;;;7.80;7.43;;;0.50;99.90;;;;;;5051327;28;20171;-65
2023/04/03 01:17:56;;;;;;;8.93;8.10;;;0.50;99.90;;;;;;5051600;28;20201;-65
2023/04/03 01:20:30;;;;;;;8.13;7.73;;;0.40;99.90;;;;;;5051456;28;20242;-65
2023/04/03 01:23:10;;;;;;;8.37;7.93;;;0.40;99.90;;;;;;5071224;28;20613;-64
2023/04/03 01:25:45;;;;;;;7.80;7.43;;;0.30;99.90;;;;;;5053697;28;20263;-65
2023/04/03 01:28:16;;;;;;;8.80;8.20;;;0.30;99.90;;;;;;5051811;28;20190;-65
2023/04/03 01:30:48;;;;;;;8.07;7.67;;;0.30;99.90;;;;;;5068764;28;20633;-65
2023/04/03 01:33:14;;;;;;;8.00;7.60;;;0.30;99.90;;;;;;5071633;28;20215;-65
2023/04/03 01:35:39;;;;;;;8.00;7.60;;;0.30;99.90;;;;;;5053311;28;20605;-64
2023/04/03 01:38:06;;;;;;;8.30;7.80;;;0.30;99.90;;;;;;5051537;28;20204;-64
2023/04/03 01:40:31;;;;;;;9.50;9.00;;;0.20;99.90;;;;;;5055851;28;20222;-64
2023/04/03 01:42:57;;;;;;;8.77;8.20;;;0.20;99.90;;;;;;5070107;28;20644;-64
2023/04/03 01:45:22;;;;;;;9.17;8.23;;;0.20;99.90;;;;;;5071472;28;20169;-64
2023/04/03 01:47:48;;;;;;;8.50;7.80;;;0.20;99.90;;;;;;5071605;28;20296;-64
2023/04/03 01:50:14;;;;;;;7.53;7.07;;;0.20;99.90;;;;;;5070385;28;20532;-64
2023/04/03 01:52:39;;;;;;;8.93;8.40;;;0.20;99.90;;;;;;5071118;28;20185;-64
2023/04/03 01:55:06;;;;;;;8.80;8.30;;;0.20;99.90;;;;;;5061482;28;20182;-64
2023/04/03 01:57:31;;;;;;;8.27;7.77;;;0.20;99.90;;;;;;5051192;28;20258;-64
2023/04/03 01:59:57;;;;;;;8.10;7.60;;;0.20;99.90;;;;;;5058476;28;20276;-64
2023/04/03 02:02:22;;;;;;;8.80;8.10;;;0.20;99.90;;;;;;5071073;28;20206;-64
2023/04/03 02:04:48;;;;;;;9.00;8.50;;;0.20;99.90;;;;;;5070526;28;20170;-64
2023/04/03 02:07:13;;;;;;;9.00;8.17;;;0.10;99.90;;;;;;5069539;28;20174;-64
2023/04/03 02:09:39;;;;;;;8.43;8.00;;;0.20;99.90;;;;;;5066216;28;20270;-64
2023/04/03 02:12:05;;;;;;;8.73;8.23;;;0.20;99.90;;;;;;5050960;28;20178;-64
2023/04/03 02:14:30;;;;;;;8.43;7.90;;;0.20;99.90;;;;;;5052205;28;20232;-64
2023/04/03 02:16:56;;;;;;;9.07;8.47;;;0.20;99.90;;;;;;5050797;28;20269;-64
2023/04/03 02:19:22;;;;;;;9.30;8.53;;;0.20;99.90;;;;;;5050567;28;20174;-64
2023/04/03 02:21:47;;;;;;;8.63;7.93;;;0.20;99.90;;;;;;5054558;28;20221;-64
2023/04/03 02:24:13;;;;;;;9.07;8.57;;;0.20;99.90;;;;;;5054733;28;20163;-64
2023/04/03 02:26:38;;;;;;;8.20;7.70;;;0.20;99.90;;;;;;5054837;28;20179;-64
2023/04/03 02:29:04;;;;;;;9.90;9.20;;;0.20;99.90;;;;;;5054489;28;20624;-64
2023/04/03 02:31:29;;;;;;;9.10;8.60;;;0.20;99.90;;;;;;5071728;28;20766;-64
2023/04/03 02:33:55;;;;;;;8.50;7.97;;;0.20;99.90;;;;;;5061464;28;20182;-64
2023/04/03 02:36:21;;;;;;;8.30;7.90;;;0.20;99.90;;;;;;5053865;28;20175;-64
2023/04/03 02:38:46;;;;;;;11.60;8.70;;;0.20;99.90;;;;;;5053185;28;20548;-64
2023/04/03 02:41:12;;;;;;;8.70;8.20;;;0.20;99.90;;;;;;5053180;28;20213;-64
2023/04/03 02:43:38;;;;;;;15.47;8.20;;;0.20;99.90;;;;;;5055521;28;20660;-64
2023/04/03 02:46:05;;;;;;;9.37;8.60;;;0.20;99.90;;;;;;5054153;28;20688;-64
2023/04/03 02:48:31;;;;;;;7.37;7.07;;;0.30;99.90;;;;;;5064112;28;20170;-64
2023/04/03 02:50:56;;;;;;;9.13;8.53;;;0.30;99.90;;;;;;5073323;28;20198;-64
2023/04/03 02:53:22;;;;;;;9.00;8.40;;;0.30;99.90;;;;;;5065684;28;20175;-64
2023/04/03 02:55:48;;;;;;;9.37;8.87;;;0.30;99.90;;;;;;5052814;28;20459;-64
2023/04/03 02:58:14;;;;;;;11.43;10.40;;;0.30;99.90;;;;;;5060602;28;20253;-64
2023/04/03 03:00:40;;;;;;;8.90;8.40;;;0.30;99.90;;;;;;5073592;28;20190;-64
2023/04/03 03:03:06;;;;;;;9.97;9.27;;;0.30;99.90;;;;;;5068735;28;20202;-64
2023/04/03 03:05:32;;;;;;;9.20;8.70;;;0.30;99.90;;;;;;5053923;28;20171;-64
2023/04/03 03:07:57;;;;;;;8.57;8.03;;;0.20;99.90;;;;;;5054890;28;20178;-64
2023/04/03 03:10:23;;;;;;;8.90;8.40;;;0.20;99.90;;;;;;5053466;28;20186;-64
2023/04/03 03:12:49;;;;;;;8.80;8.30;;;0.20;99.90;;;;;;5054808;28;20175;-64
2023/04/03 03:15:17;;;;;;;8.30;7.70;;;0.20;99.90;;;;;;5073856;28;20174;-64
2023/04/03 03:17:42;;;;;;;8.53;8.00;;;0.20;99.90;;;;;;5072176;28;20186;-64
2023/04/03 03:20:09;;;;;;;9.17;8.67;;;0.20;99.90;;;;;;5073245;28;20240;-64
2023/04/03 03:22:35;;;;;;;8.63;8.03;;;0.20;99.90;;;;;;5073606;28;20280;-64
2023/04/03 03:25:02;;;;;;;8.67;8.17;;;0.20;99.90;;;;;;5054502;28;20262;-64
2023/04/03 03:27:27;;;;;;;9.43;8.77;;;0.10;99.90;;;;;;5052875;28;20167;-64
2023/04/03 03:29:53;;;;;;;8.97;8.27;;;0.10;99.90;;;;;;5053459;28;20195;-64
2023/04/03 03:32:19;;;;;;;10.70;8.57;;;0.10;99.90;;;;;;5053022;28;20174;-64
2023/04/03 03:34:45;;;;;;;8.43;7.97;;;0.10;99.90;;;;;;5068282;28;20178;-64
2023/04/03 03:37:10;;;;;;;8.93;8.37;;;0.10;99.90;;;;;;5073377;28;20209;-64
2023/04/03 03:39:36;;;;;;;10.67;10.07;;;0.10;99.90;;;;;;5059358;28;20185;-64
2023/04/03 03:42:01;;;;;;;9.53;9.03;;;0.10;99.90;;;;;;5053135;28;20202;-64
2023/04/03 03:44:28;;;;;;;9.60;9.00;;;0.00;99.90;;;;;;5064773;28;20568;-64
2023/04/03 03:46:55;;;;;;;9.20;8.60;;;0.00;99.90;;;;;;5064019;28;20175;-64
2023/04/03 03:49:20;;;;;;;8.47;7.97;;;0.00;99.90;;;;;;5057952;28;20188;-64
2023/04/03 03:51:46;;;;;;;8.90;8.40;;;0.00;99.90;;;;;;5073134;28;20546;-64
2023/04/03 03:54:13;;;;;;;9.40;8.63;;;0.00;99.90;;;;;;5068980;28;20170;-64
2023/04/03 03:56:39;;;;;;;7.63;7.13;;;0.00;99.90;;;;;;5053056;28;20179;-64
2023/04/03 03:59:04;;;;;;;9.43;8.70;;;-0.10;99.90;;;;;;5054217;28;20183;-64
2023/04/03 04:01:30;;;;;;;8.30;7.83;;;-0.10;99.90;;;;;;5072588;28;20206;-64
2023/04/03 04:03:56;;;;;;;9.53;9.03;;;-0.10;99.90;;;;;;5072186;28;20173;-64
2023/04/03 04:06:21;;;;;;;8.20;7.70;;;-0.10;99.90;;;;;;5052876;28;20599;-64
2023/04/03 04:08:47;;;;;;;8.50;8.07;;;-0.10;99.90;;;;;;5052599;28;20163;-64
2023/04/03 04:11:13;;;;;;;7.33;6.93;;;-0.10;99.90;;;;;;5052960;28;20247;-64
2023/04/03 04:13:38;;;;;;;8.37;7.87;;;-0.10;99.90;;;;;;5052769;28;20635;-64
2023/04/03 04:16:05;;;;;;;8.20;7.77;;;0.00;99.90;;;;;;5052407;28;20186;-64
2023/04/03 04:18:30;;;;;;;8.73;8.33;;;0.10;99.90;;;;;;5052652;28;20576;-64
2023/04/03 04:20:56;;;;;;;7.87;7.57;;;0.10;99.90;;;;;;5066631;28;20217;-63
2023/04/03 04:23:21;;;;;;;8.23;7.77;;;0.10;99.90;;;;;;5072995;28;20170;-64
2023/04/03 04:25:48;;;;;;;9.03;8.23;;;0.10;99.90;;;;;;5071610;28;20182;-64
2023/04/03 04:28:14;;;;;;;9.10;8.50;;;0.00;99.90;;;;;;5072329;28;20178;-64
2023/04/03 04:30:40;;;;;;;7.47;7.07;;;0.10;99.90;;;;;;5059510;28;20661;-64
2023/04/03 04:33:06;;;;;;;8.00;7.50;;;0.10;99.90;;;;;;5052414;28;20286;-64
2023/04/03 04:35:32;;;;;;;7.63;7.33;;;0.10;99.90;;;;;;5050978;28;20175;-64
2023/04/03 04:37:57;;;;;;;9.13;8.43;;;0.10;99.90;;;;;;5052214;28;20716;-64
2023/04/03 04:40:23;;;;;;;8.60;8.07;;;0.10;99.90;;;;;;5051823;28;20202;-64
2023/04/03 04:42:49;;;;;;;7.60;7.27;;;0.00;99.90;;;;;;5057565;28;20547;-65
2023/04/03 04:45:14;;;;;;;7.57;7.27;;;0.00;99.90;;;;;;5072345;28;20197;-64
2023/04/03 04:47:40;;;;;;;7.57;7.13;;;-0.10;99.90;;;;;;5066958;28;20179;-64
2023/04/03 04:50:06;;;;;;;8.27;7.87;;;0.00;99.90;;;;;;5050372;28;20199;-64
2023/04/03 04:52:32;;;;;;;7.90;7.50;;;-0.10;99.90;;;;;;5052090;28;20258;-64
2023/04/03 04:54:58;;;;;;;8.37;7.97;;;-0.10;99.90;;;;;;5051772;28;20225;-64
2023/04/03 04:57:23;;;;;;;8.17;7.70;;;-0.10;99.90;;;;;;5053387;28;20175;-64
2023/04/03 04:59:49;;;;;;;9.33;8.83;;;-0.10;99.90;;;;;;5071606;28;20377;-64
2023/04/03 05:02:15;;;;;;;9.13;8.43;;;-0.10;99.90;;;;;;5071435;28;20194;-64
2023/04/03 05:04:40;;;;;;;7.40;7.03;;;-0.20;99.90;;;;;;5052003;28;20170;-64
2023/04/03 05:07:06;;;;;;;14.63;8.20;;;-0.20;99.90;;;;;;5051528;28;20175;-64
2023/04/03 05:09:31;;;;;;;12.77;8.20;;;-0.20;99.90;;;;;;5052671;28;20171;-64
2023/04/03 05:11:57;;;;;;;8.80;8.30;;;-0.20;99.90;;;;;;5051808;28;20179;-64
2023/04/03 05:14:23;;;;;;;8.93;8.43;;;-0.20;99.90;;;;;;5068029;28;20181;-64
2023/04/03 05:16:52;;;;;;;8.30;7.90;;;-0.20;99.90;;;;;;5071473;28;20206;-64
2023/04/03 05:19:18;;;;;;;7.93;7.53;;;-0.20;99.90;;;;;;5070142;28;20269;-64
2023/04/03 05:21:44;;;;;;;8.33;7.77;;;-0.20;99.90;;;;;;5071370;28;20212;-64
2023/04/03 05:24:09;;;;;;;8.00;7.50;;;-0.20;99.90;;;;;;5056518;28;20229;-64
2023/04/03 05:26:35;;;;;;;8.07;7.70;;;-0.20;99.90;;;;;;5051596;28;20171;-64
2023/04/03 05:29:01;;;;;;;7.53;7.17;;;-0.20;99.90;;;;;;5062700;28;20174;-64
2023/04/03 05:31:29;;;;;;;8.40;7.97;;;-0.20;99.90;;;;;;5071180;28;20201;-64
2023/04/03 05:33:54;;;;;;;7.60;7.20;;;-0.20;99.90;;;;;;5060916;28;20182;-64
2023/04/03 05:36:20;;;;;;;7.37;6.97;;;-0.20;99.90;;;;;;5051532;28;20742;-64
2023/04/03 05:38:46;;;;;;;7.83;7.43;;;-0.10;99.90;;;;;;5059637;28;20555;-64
2023/04/03 05:41:13;;;;;;;7.73;7.27;;;0.00;99.90;;;;;;5070814;28;20186;-64
2023/04/03 05:43:38;;;;;;;10.20;7.93;;;0.10;99.90;;;;;;5067758;28;20659;-64
2023/04/03 05:46:10;;;;;;;8.80;8.30;;;0.20;99.90;;;;;;5061961;28;20289;-64
2023/04/03 05:48:36;;;;;;;8.43;7.73;;;0.20;99.90;;;;;;5071386;28;20166;-64
2023/04/03 05:51:02;;;;;;;7.57;7.13;;;0.30;99.90;;;;;;5070776;28;20186;-64
2023/04/03 05:53:31;;;;;;;8.10;7.70;;;0.50;99.90;;;;;;5070874;28;20172;-65
2023/04/03 05:55:57;;;;;;;7.50;7.13;;;0.60;99.90;;;;;;5073983;28;20675;-64
2023/04/03 05:58:23;;;;;;;7.40;7.10;;;0.70;99.90;;;;;;5074344;28;20629;-64
2023/04/03 06:00:48;;;;;;;8.00;7.60;;;0.70;99.90;;;;;;5074422;28;20280;-64
2023/04/03 06:03:14;;;;;;;10.90;7.07;;;0.90;99.90;;;;;;5055100;28;20201;-64
2023/04/03 06:05:41;;;;;;;7.70;7.27;;;0.90;99.90;;;;;;5054530;28;20179;-64
2023/04/03 06:08:08;;;;;;;10.37;9.67;;;1.00;99.90;;;;;;5073382;28;20582;-64
2023/04/03 06:10:35;;;;;;;9.03;8.63;;;1.10;99.90;;;;;;5074871;28;20186;-64
2023/04/03 06:13:01;;;;;;;9.57;9.00;;;1.20;99.90;;;;;;5057238;28;20179;-64
2023/04/03 06:15:27;;;;;;;9.77;9.27;;;1.20;99.90;;;;;;5054884;28;20273;-65
2023/04/03 06:17:52;;;;;;;10.63;9.80;;;1.30;99.90;;;;;;5070086;28;20181;-64
2023/04/03 06:20:18;;;;;;;8.77;8.37;;;1.40;99.90;;;;;;5074158;28;20591;-64
2023/04/03 06:22:44;;;;;;;8.83;8.33;;;1.50;99.90;;;;;;5074544;28;20213;-64
2023/04/03 06:25:09;;;;;;;9.10;8.50;;;1.60;99.90;;;;;;5074882;28;20170;-64
2023/04/03 06:27:35;;;;;;;11.47;7.93;;;1.80;99.90;;;;;;5062614;28;20210;-64
2023/04/03 06:30:01;;;;;;;7.80;7.20;;;2.10;99.90;;;;;;5054325;28;20201;-64
2023/04/03 06:32:26;;;;;;;8.97;8.10;;;2.60;99.90;;;;;;5069107;28;20182;-64
2023/04/03 06:34:53;;;;;;;9.30;8.70;;;3.00;99.90;;;;;;5074339;28;20170;-64
2023/04/03 06:37:21;;;;;;;9.40;8.63;;;3.50;99.90;;;;;;5060721;28;20262;-64
2023/04/03 06:39:47;;;;;;;7.43;7.00;;;3.90;99.90;;;;;;5053162;28;20217;-64
2023/04/03 06:42:13;;;;;;;9.90;9.40;;;4.20;99.90;;;;;;5066120;28;20224;-64
2023/04/03 06:44:39;;;;;;;6.83;6.37;;;4.40;99.90;;;;;;5074349;28;20166;-64
2023/04/03 06:47:05;;;;;;;6.47;6.07;;;4.70;99.90;;;;;;5072265;28;20178;-64
2023/04/03 06:49:31;;;;;;;7.67;7.17;;;4.90;99.90;;;;;;5073811;28;20189;-64
2023/04/03 06:51:56;;;;;;;6.77;6.40;;;5.20;99.90;;;;;;5074646;28;20178;-65
2023/04/03 06:54:22;;;;;;;6.50;6.10;;;5.50;99.90;;;;;;5074524;28;20538;-64
2023/04/03 06:56:48;;;;;;;7.00;6.50;;;5.60;99.90;;;;;;5072690;28;20215;-64
2023/04/03 06:59:14;;;;;;;6.83;5.97;;;5.80;99.90;;;;;;5073565;28;20178;-64
2023/04/03 07:01:40;;;;;;;7.33;6.43;;;6.00;99.90;;;;;;5068135;28;20569;-65
2023/04/03 07:04:07;;;;;;;6.17;5.80;;;6.30;99.90;;;;;;5053892;28;20175;-65
2023/04/03 07:06:34;;;;;;;6.67;6.37;;;6.70;99.90;;;;;;5056823;28;20173;-64
2023/04/03 07:09:00;;;;;;;6.50;6.20;;;6.70;99.90;;;;;;5073898;28;20186;-63
2023/04/03 07:11:26;;;;;;;6.03;5.73;;;6.80;99.90;;;;;;5068483;28;20202;-63
2023/04/03 07:13:52;;;;;;;5.80;5.50;;;7.00;99.90;;;;;;5054107;28;20659;-63
2023/04/03 07:16:18;;;;;;;6.20;5.60;;;7.00;99.90;;;;;;5054094;28;20217;-63
2023/04/03 07:18:45;;;;;;;6.57;6.10;;;7.10;99.90;;;;;;5053715;28;20229;-63
2023/04/03 07:21:11;;;;;;;5.73;5.43;;;7.10;99.90;;;;;;5055167;28;20198;-63
2023/04/03 07:23:37;;;;;;;5.23;4.93;;;7.30;99.90;;;;;;5074402;28;20171;-64
2023/04/03 07:26:03;;;;;;;5.60;5.30;;;7.30;99.90;;;;;;5066766;28;20219;-64
2023/04/03 07:28:29;;;;;;;6.33;5.47;;;7.30;99.90;;;;;;5073377;28;20253;-65
2023/04/03 07:31:01;;;;;;;5.37;4.97;;;7.30;99.90;;;;;;5072301;28;20189;-64
2023/04/03 07:33:27;;;;;;;4.93;4.73;;;7.30;99.90;;;;;;5073536;28;20181;-64
2023/04/03 07:35:53;;;;;;;5.33;5.03;;;7.50;99.90;;;;;;5058848;28;20181;-65
2023/04/03 07:38:19;;;;;;;5.27;4.87;;;7.40;99.90;;;;;;5052547;28;20174;-66
2023/04/03 07:40:47;;;;;;;5.53;5.13;;;7.20;99.90;;;;;;5065683;28;20761;-64
2023/04/03 07:43:13;;;;;;;5.53;5.23;;;7.30;99.90;;;;;;5072821;28;20205;-64
2023/04/03 07:45:38;;;;;;;5.43;5.13;;;7.60;99.90;;;;;;5061494;28;20527;-64
2023/04/03 07:48:04;;;;;;;5.03;4.83;;;7.70;99.90;;;;;;5057100;28;20174;-64
2023/04/03 07:50:32;;;;;;;4.97;4.70;;;7.60;99.90;;;;;;5063688;28;20269;-65
2023/04/03 07:52:57;;;;;;;4.90;4.70;;;7.50;99.90;;;;;;5066673;28;20206;-63
2023/04/03 07:55:23;;;;;;;4.97;4.53;;;7.60;99.90;;;;;;5072586;28;20678;-64
2023/04/03 07:57:49;;;;;;;4.90;4.70;;;7.80;99.90;;;;;;5073147;28;20200;-65
2023/04/03 08:00:17;;;;;;;5.43;4.93;;;7.60;99.90;;;;;;5066126;28;20231;-65
2023/04/03 08:02:44;;;;;;;5.00;4.70;;;7.70;99.90;;;;;;5052690;28;20233;-65
2023/04/03 08:05:10;;;;;;;5.87;5.37;;;7.90;99.90;;;;;;5053028;28;20171;-64
2023/04/03 08:07:37;;;;;;;4.70;4.40;;;8.10;99.90;;;;;;5053120;28;20190;-64
2023/04/03 08:10:03;;;;;;;4.87;4.57;;;8.40;99.90;;;;;;5053369;28;20197;-65
2023/04/03 08:12:29;;;;;;;4.63;4.43;;;8.40;99.90;;;;;;5053003;28;20265;-63
2023/04/03 08:14:55;;;;;;;4.90;4.50;;;8.30;99.90;;;;;;5069168;28;20213;-64
2023/04/03 08:17:21;;;;;;;4.57;4.37;;;8.40;99.90;;;;;;5071339;28;20231;-65
2023/04/03 08:19:47;;;;;;;4.30;4.10;;;8.70;99.90;;;;;;5071417;28;20591;-64
2023/04/03 08:22:12;;;;;;;4.53;4.23;;;9.20;99.90;;;;;;5070932;28;20205;-65
2023/04/03 08:24:38;;;;;;;4.60;4.40;;;9.30;99.90;;;;;;5072578;28;20169;-64
2023/04/03 08:27:04;;;;;;;4.27;4.07;;;9.20;99.90;;;;;;5070916;28;20599;-64
2023/04/03 08:29:29;;;;;;;5.00;4.50;;;9.40;99.90;;;;;;5052798;28;20174;-64
2023/04/03 08:31:55;;;;;;;4.13;3.93;;;9.70;99.90;;;;;;5066317;28;20186;-65
2023/04/03 08:34:21;;;;;;;4.23;4.03;;;9.90;99.90;;;;;;5071254;28;20180;-64
2023/04/03 08:36:47;;;;;;;4.47;4.10;;;10.20;99.90;;;;;;5059499;28;20179;-64
2023/04/03 08:39:12;;;;;;;4.20;3.90;;;10.30;99.90;;;;;;5051403;28;20702;-65
2023/04/03 08:41:44;;;;;;;5.13;3.90;;;10.10;99.90;;;;;;5061639;28;20204;-64
2023/04/03 08:44:22;;;;;;;5.43;4.03;;;10.40;99.90;;;;;;5072129;28;20169;-64
2023/04/03 08:47:25;;;;;;;4.30;4.00;;;10.40;99.90;;;;;;5061194;28;20443;-65
2023/04/03 08:50:00;;;;;;;4.53;3.90;;;10.30;99.90;;;;;;5051595;28;20193;-64
2023/04/03 08:52:46;;;;;;;3.70;3.50;;;10.30;99.90;;;;;;5066849;28;20276;-65
2023/04/03 08:55:48;;;;;;;4.30;4.00;;;10.10;99.90;;;;;;5071489;28;20181;-64
2023/04/03 08:58:48;;;;;;;4.20;3.90;;;10.20;99.90;;;;;;5051782;28;20178;-65
2023/04/03 09:01:21;;;;;;;3.70;3.60;;;10.40;99.90;;;;;;5054375;28;20205;-65
2023/04/03 09:03:47;;;;;;;4.23;4.03;;;10.60;99.90;;;;;;5051500;28;20163;-65
2023/04/03 09:06:21;;;;;;;3.83;3.60;;;10.80;99.90;;;;;;5057080;28;20533;-65
2023/04/03 09:08:59;;;;;;;4.20;3.80;;;10.90;99.90;;;;;;5071974;28;20166;-65
2023/04/03 09:11:29;;;;;;;4.13;3.93;;;11.10;98.90;;;;;;5062818;28;20282;-65
2023/04/03 09:14:01;;;;;;;3.87;3.60;;;11.10;98.70;;;;;;5050140;28;20170;-64
2023/04/03 09:16:43;;;;;;;3.70;3.50;;;11.10;98.60;;;;;;5056666;28;20194;-64
2023/04/03 09:19:30;;;;;;;3.70;3.40;;;10.90;96.50;;;;;;5070443;28;20198;-64
2023/04/03 09:21:57;;;;;;;4.23;3.87;;;10.90;96.90;;;;;;5070893;28;20201;-65
2023/04/03 09:24:24;;;;;;;3.97;3.70;;;11.00;97.80;;;;;;5071609;28;20174;-65
2023/04/03 09:27:09;;;;;;;3.67;3.37;;;11.10;97.90;;;;;;5060707;28;20175;-64
2023/04/03 09:29:39;;;;;;;3.83;3.53;;;11.10;97.40;;;;;;5050827;28;20166;-65
2023/04/03 09:32:30;;;;;;;3.63;3.43;;;11.30;96.00;;;;;;5056551;28;20178;-65
2023/04/03 09:35:15;;;;;;;3.63;3.47;;;11.60;96.30;;;;;;5051292;28;20238;-64
2023/04/03 09:37:46;;;;;;;4.00;3.70;;;11.60;98.40;;;;;;5066246;28;20205;-65
2023/04/03 09:40:41;;;;;;;3.67;3.47;;;11.80;97.40;;;;;;5070923;28;20193;-64
2023/04/03 09:43:31;;;;;;;3.60;3.50;;;11.80;97.90;;;;;;5052642;28;20202;-65
2023/04/03 09:46:17;;;;;;;3.70;3.50;;;11.30;96.90;;;;;;5051187;28;20178;-65
2023/04/03 09:48:51;;;;;;;3.77;3.50;;;11.30;98.10;;;;;;5057211;28;20655;-66
2023/04/03 09:51:16;;;;;;;3.90;3.80;;;11.10;96.50;;;;;;5070869;28;20352;-65
2023/04/03 09:53:44;;;;;;;3.83;3.63;;;11.10;98.50;;;;;;5071102;28;20644;-65
2023/04/03 09:56:16;;;;;;;3.20;3.10;;;11.40;99.20;;;;;;5071228;28;20233;-65
2023/04/03 09:58:49;;;;;;;4.13;3.93;;;11.80;97.50;;;;;;5051232;28;20178;-65
2023/04/03 10:01:21;;;;;;;3.50;3.30;;;12.00;98.10;;;;;;5059272;28;20221;-66
2023/04/03 10:04:15;;;;;;;3.70;3.60;;;12.10;93.20;;;;;;5071284;28;20244;-66
2023/04/03 10:06:46;;;;;;;3.90;3.60;;;12.30;93.60;;;;;;5059500;28;20551;-65
2023/04/03 10:09:29;;;;;;;4.47;4.17;;;12.10;91.70;;;;;;5050675;28;20589;-65
2023/04/03 10:12:06;;;;;;;5.13;3.87;;;12.00;94.70;;;;;;5063902;28;20178;-65
2023/04/03 10:14:37;;;;;;;3.80;3.60;;;12.10;95.60;;;;;;5071190;28;20178;-65
2023/04/03 10:17:32;;;;;;;3.80;3.60;;;12.10;93.10;;;;;;5057450;28;20182;-66
2023/04/03 10:20:03;;;;;;;3.70;3.50;;;12.20;94.40;;;;;;5056899;28;20218;-66
2023/04/03 10:23:03;;;;;;;4.77;3.60;;;12.40;92.90;;;;;;5071068;28;20206;-66
2023/04/03 10:25:48;;;;;;;3.40;3.20;;;12.70;93.60;;;;;;5059244;28;20186;-65
2023/04/03 10:28:23;;;;;;;3.70;3.50;;;13.20;94.30;;;;;;5051000;28;20671;-66
2023/04/03 10:31:25;;;;;;;3.87;3.50;;;13.50;92.70;;;;;;5055219;28;20268;-65
2023/04/03 10:34:08;;;;;;;4.23;3.90;;;13.50;91.20;;;;;;5056571;28;20248;-65
2023/04/03 10:36:57;;;;;;;3.90;3.70;;;13.00;90.80;;;;;;5069721;28;20174;-66
2023/04/03 10:40:00;;;;;;;3.67;3.47;;;12.70;91.60;;;;;;5065321;28;20262;-65
2023/04/03 10:42:47;;;;;;;4.93;3.63;;;12.50;92.30;;;;;;5054494;28;20245;-65
2023/04/03 10:45:27;;;;;;;4.20;3.60;;;12.70;92.80;;;;;;5057289;28;20210;-65
2023/04/03 10:47:53;;;;;;;3.70;3.50;;;12.60;90.50;;;;;;5064727;28;20235;-65
2023/04/03 10:50:25;;;;;;;4.00;3.60;;;12.40;91.70;;;;;;5074232;28;20189;-65
2023/04/03 10:53:09;;;;;;;3.97;3.40;;;12.50;92.10;;;;;;5059696;28;20179;-66
2023/04/03 10:55:44;;;;;;;3.80;3.60;;;12.90;92.90;;;;;;5054175;28;20249;-65
2023/04/03 10:58:50;;;;;;;3.70;3.50;;;12.90;93.10;;;;;;5070622;28;20227;-65
2023/04/03 11:01:23;;;;;;;3.90;3.70;;;12.60;92.50;;;;;;5072660;28;20210;-66
2023/04/03 11:03:58;;;;;;;3.87;3.67;;;12.40;90.20;;;;;;5054187;28;20171;-66
2023/04/03 11:06:31;;;;;;;4.33;4.00;;;12.30;88.80;;;;;;5054473;28;20250;-64
2023/04/03 11:09:03;;;;;;;3.93;3.73;;;12.20;90.00;;;;;;5074068;28;20166;-66
2023/04/03 11:11:41;;;;;;;4.03;3.77;;;12.30;90.70;;;;;;5073169;28;20190;-65
2023/04/03 11:14:15;;;;;;;3.83;3.63;;;12.50;92.40;;;;;;5054019;28;20253;-66
2023/04/03 11:16:46;;;;;;;5.03;3.80;;;12.30;89.30;;;;;;5055296;28;20194;-66
2023/04/03 11:19:23;;;;;;;4.03;3.77;;;12.30;90.70;;;;;;5073852;28;20163;-65
2023/04/03 11:22:01;;;;;;;3.80;3.60;;;12.20;90.60;;;;;;5071967;28;20201;-65
2023/04/03 11:24:31;;;;;;;3.90;3.67;;;12.40;90.90;;;;;;5073872;28;20170;-66
2023/04/03 11:26:59;;;;;;;4.40;4.00;;;12.10;88.10;;;;;;5070972;28;20171;-66
2023/04/03 11:29:33;;;;;;;4.10;3.80;;;11.90;91.10;;;;;;5053205;28;20182;-64
2023/04/03 11:32:02;;;;;;;3.63;3.53;;;12.20;91.20;;;;;;5055222;28;20203;-64
2023/04/03 11:34:40;;;;;;;3.60;3.50;;;11.90;84.50;;;;;;5073686;28;20178;-66
2023/04/03 11:37:17;;;;;;;5.27;4.00;;;12.10;92.00;;;;;;5071227;28;20651;-65
2023/04/03 11:39:56;;;;;;;3.70;3.50;;;12.40;91.70;;;;;;5053215;28;20260;-64
2023/04/03 11:42:28;;;;;;;4.17;3.97;;;12.70;90.00;;;;;;5056566;28;20197;-66
2023/04/03 11:45:23;;;;;;;4.03;3.83;;;12.40;81.10;;;;;;5062774;28;20261;-65
2023/04/03 11:47:49;;;;;;;5.80;4.00;;;12.10;84.60;;;;;;5057128;28;20174;-64
2023/04/03 11:50:33;;;;;;;3.73;3.63;;;12.20;85.60;;;;;;5052706;28;20256;-65
2023/04/03 11:53:34;;;;;;;3.60;3.50;;;12.50;89.30;;;;;;5052633;28;20197;-65
2023/04/03 11:56:04;;;;;;;3.90;3.70;;;12.40;84.60;;;;;;5052652;28;20179;-67
2023/04/03 11:58:34;;;;;;;3.93;3.67;;;12.60;88.00;;;;;;5053385;28;20171;-66
2023/04/03 12:01:32;;;;;;;4.07;3.77;;;13.10;90.00;;;;;;5052045;28;20687;-65
2023/04/03 12:04:09;;;;;;;3.63;3.47;;;13.20;81.20;;;;;;5052837;28;20178;-64
2023/04/03 12:06:35;;;;;;;3.40;3.30;;;13.20;81.90;;;;;;5068520;28;20576;-65
2023/04/03 12:09:01;;;;;;;3.80;3.60;;;13.40;82.90;;;;;;5072770;28;20704;-65
2023/04/03 12:11:33;;;;;;;3.40;3.30;;;13.40;79.60;;;;;;5072381;28;20183;-65
2023/04/03 12:13:59;;;;;;;3.50;3.30;;;13.40;78.80;;;;;;5072726;28;20166;-65
2023/04/03 12:16:30;;;;;;;3.73;3.53;;;13.50;75.70;;;;;;5072926;28;20172;-66
2023/04/03 12:19:03;;;;;;;3.80;3.50;;;13.30;72.50;;;;;;5072642;28;20167;-65
2023/04/03 12:21:34;;;;;;;3.90;3.70;;;13.20;79.70;;;;;;5072010;28;20198;-65
2023/04/03 12:24:07;;;;;;;3.57;3.37;;;13.30;77.00;;;;;;5072534;28;20207;-65
2023/04/03 12:26:39;;;;;;;3.57;3.37;;;13.30;73.20;;;;;;5072699;28;20167;-65
2023/04/03 12:29:34;;;;;;;3.90;3.60;;;13.50;76.70;;;;;;5072332;28;20795;-65
2023/04/03 12:32:23;;;;;;;3.70;3.40;;;13.60;70.10;;;;;;5072453;28;20170;-64
2023/04/03 12:35:14;;;;;;;3.70;3.50;;;13.50;75.20;;;;;;5072438;28;20643;-65
2023/04/03 12:38:10;;;;;;;3.87;3.57;;;13.60;68.50;;;;;;5072303;28;20170;-65
2023/04/03 12:40:41;;;;;;;3.80;3.50;;;13.30;62.00;;;;;;5071974;28;20250;-66
2023/04/03 12:43:21;;;;;;;3.70;3.37;;;13.00;62.30;;;;;;5071948;28;20198;-65
2023/04/03 12:45:52;;;;;;;3.50;3.40;;;12.90;67.80;;;;;;5072313;28;20174;-64
2023/04/03 12:48:24;;;;;;;4.03;3.63;;;13.00;65.30;;;;;;5072220;28;20663;-64
2023/04/03 12:50:50;;;;;;;3.50;3.40;;;13.10;69.40;;;;;;5071918;28;20217;-65
2023/04/03 12:53:42;;;;;;;4.00;3.70;;;13.40;69.60;;;;;;5071881;28;20175;-66
2023/04/03 12:56:21;;;;;;;3.40;3.30;;;13.30;65.40;;;;;;5070885;28;20178;-65
2023/04/03 12:58:47;;;;;;;3.60;3.50;;;13.20;67.70;;;;;;5072303;28;20506;-64
2023/04/03 13:01:17;;;;;;;3.90;3.70;;;13.40;70.70;;;;;;5069746;28;20193;-65
2023/04/03 13:03:46;;;;;;;3.80;3.60;;;13.60;72.80;;;;;;5071382;28;20170;-65
2023/04/03 13:06:22;;;;;;;3.40;3.20;;;13.20;60.40;;;;;;5071744;28;20163;-64
2023/04/03 13:08:53;;;;;;;3.70;3.50;;;13.00;69.10;;;;;;5071944;28;20166;-64